Time;durP1;ratioP1;P1;durP2;ratioP2;P2;SDS_P1;SDS_P2;PMS_P1;PMS_P2;Temp;Humidity;BMP_temperature;BMP_pressure;BME280_temperature;BME280_humidity;BME280_pressure;Samples;Min_cycle;Max_cycle;Signal;HPM_P1;HPM_P2
2022/06/27 00:00:41;;;;;;;4.35;3.40;;;;;;;21.97;63.59;98563.72;5025482;28;20604;-79
2022/06/27 00:03:07;;;;;;;3.67;3.38;;;;;;;22.03;63.03;98570.56;5022454;28;20065;-79
2022/06/27 00:05:32;;;;;;;3.40;3.20;;;;;;;21.85;63.67;98565.53;5030012;28;20087;-79
2022/06/27 00:07:58;;;;;;;4.45;3.67;;;;;;;22.07;63.07;98570.69;5027953;28;20057;-79
2022/06/27 00:10:24;;;;;;;4.55;4.18;;;;;;;21.86;64.93;98570.66;5033614;28;20025;-79
2022/06/27 00:12:50;;;;;;;4.30;3.63;;;;;;;21.82;63.80;98575.09;5029593;28;20037;-79
2022/06/27 00:15:15;;;;;;;4.57;3.42;;;;;;;21.89;64.59;98575.41;5026946;28;20022;-79
2022/06/27 00:17:41;;;;;;;5.88;4.65;;;;;;;21.50;65.20;98573.03;5041402;28;20409;-79
2022/06/27 00:20:06;;;;;;;4.07;3.40;;;;;;;21.62;64.69;98570.44;5028127;28;20032;-79
2022/06/27 00:22:32;;;;;;;4.97;4.53;;;;;;;21.44;64.92;98555.34;5029300;28;20029;-79
2022/06/27 00:24:57;;;;;;;4.07;3.78;;;;;;;21.63;64.37;98555.72;5025549;28;20033;-79
2022/06/27 00:27:23;;;;;;;4.43;4.05;;;;;;;21.91;63.51;98572.41;5027156;28;20114;-79
2022/06/27 00:29:48;;;;;;;4.82;4.40;;;;;;;21.81;63.82;98568.09;5028917;28;20503;-79
2022/06/27 00:32:14;;;;;;;4.53;4.13;;;;;;;21.69;64.01;98565.25;5029617;28;20029;-79
2022/06/27 00:34:39;;;;;;;4.63;4.07;;;;;;;21.48;64.82;98565.22;5030378;28;20401;-79
2022/06/27 00:37:05;;;;;;;4.78;4.32;;;;;;;21.47;65.35;98562.84;5032500;28;20067;-79
2022/06/27 00:39:30;;;;;;;4.65;4.32;;;;;;;21.16;66.39;98571.25;5009403;28;20133;-79
2022/06/27 00:41:55;;;;;;;4.55;4.20;;;;;;;21.65;64.29;98561.63;5030878;28;20106;-79
2022/06/27 00:44:42;;;;;;;4.90;4.43;;;;;;;21.62;64.45;98565.78;5028780;28;20029;-79
2022/06/27 00:47:11;;;;;;;6.55;5.88;;;;;;;21.12;68.09;98564.09;5029645;28;20030;-79
2022/06/27 00:49:37;;;;;;;6.10;5.15;;;;;;;20.54;69.86;98567.31;5026868;28;20041;-79
2022/06/27 00:52:04;;;;;;;4.95;4.45;;;;;;;21.24;65.93;98564.19;5029422;28;20042;-79
2022/06/27 00:54:30;;;;;;;5.53;5.03;;;;;;;20.48;69.97;98553.16;5012593;28;20451;-79
2022/06/27 00:56:56;;;;;;;5.95;5.38;;;;;;;20.39;70.52;98567.81;5026757;28;20029;-79
2022/06/27 00:59:21;;;;;;;4.97;4.50;;;;;;;20.75;67.44;98560.16;5029462;28;20041;-79
2022/06/27 01:01:47;;;;;;;4.65;4.25;;;;;;;21.23;65.59;98565.31;5009348;28;20034;-79
2022/06/27 01:04:13;;;;;;;5.20;4.80;;;;;;;21.50;64.70;98578.47;5028731;28;20026;-79
2022/06/27 01:06:38;;;;;;;4.90;4.50;;;;;;;20.51;68.86;98585.03;5008362;28;20033;-79
2022/06/27 01:09:04;;;;;;;4.57;4.18;;;;;;;21.48;65.21;98578.00;5030124;28;20040;-79
2022/06/27 01:11:30;;;;;;;4.82;4.43;;;;;;;21.22;66.84;98572.66;5026183;28;20129;-79
2022/06/27 01:13:56;;;;;;;5.57;5.07;;;;;;;21.13;67.86;98576.50;5023461;28;20033;-79
2022/06/27 01:16:23;;;;;;;6.70;5.25;;;;;;;20.58;70.97;98584.53;5010468;28;20022;-79
2022/06/27 01:18:49;;;;;;;6.47;4.97;;;;;;;20.81;67.98;98575.13;5027600;28;20018;-79
2022/06/27 01:21:25;;;;;;;5.45;5.05;;;;;;;20.80;67.67;98584.38;5028980;28;20025;-79
2022/06/27 01:23:52;;;;;;;6.15;5.63;;;;;;;21.06;67.57;98573.50;5029422;28;20112;-79
2022/06/27 01:26:19;;;;;;;5.28;4.80;;;;;;;21.15;66.31;98585.94;5011044;28;20176;-79
2022/06/27 01:28:45;;;;;;;5.30;4.80;;;;;;;21.21;66.15;98586.56;5026230;28;20033;-79
2022/06/27 01:31:12;;;;;;;5.82;5.25;;;;;;;21.53;65.14;98597.66;5024144;28;20025;-79
2022/06/27 01:33:37;;;;;;;6.22;5.75;;;;;;;21.80;64.11;98595.59;5026435;28;20434;-79
2022/06/27 01:38:50;;;;;;;6.05;5.55;;;;;;;21.59;64.69;98609.91;5022450;28;20036;-80
2022/06/27 01:41:16;;;;;;;6.60;5.97;;;;;;;21.64;64.22;98596.13;5042599;28;20413;-79
2022/06/27 01:43:41;;;;;;;6.28;5.78;;;;;;;21.61;64.54;98615.00;5022839;28;20045;-79
2022/06/27 01:46:07;;;;;;;6.85;6.25;;;;;;;21.52;64.62;98603.38;5027625;28;20090;-79
2022/06/27 01:48:34;;;;;;;6.75;6.20;;;;;;;21.42;65.81;98617.31;5006489;28;20033;-79
2022/06/27 01:51:02;;;;;;;8.57;7.80;;;;;;;21.44;65.14;98615.88;5025521;28;20059;-79
2022/06/27 01:53:29;;;;;;;8.00;7.30;;;;;;;21.37;65.53;98623.72;5020208;28;20088;-80
2022/06/27 01:55:54;;;;;;;8.52;7.20;;;;;;;21.24;65.63;98626.63;5023560;28;20029;-79
2022/06/27 01:58:20;;;;;;;7.43;6.72;;;;;;;21.57;64.71;98622.22;5023505;28;20037;-79
2022/06/27 02:00:45;;;;;;;7.82;7.13;;;;;;;21.45;64.77;98620.19;5037829;28;20036;-79
2022/06/27 02:03:11;;;;;;;10.20;7.50;;;;;;;21.25;65.31;98610.00;5023662;28;20479;-79
2022/06/27 02:05:36;;;;;;;8.20;7.40;;;;;;;20.99;66.64;98605.75;5025048;28;20033;-79
2022/06/27 02:08:03;;;;;;;7.55;6.85;;;;;;;21.26;65.60;98605.38;5023136;28;20049;-79
2022/06/27 02:10:29;;;;;;;8.20;6.95;;;;;;;21.39;65.47;98609.81;5023960;28;20409;-79
2022/06/27 02:12:55;;;;;;;7.20;6.50;;;;;;;21.34;64.93;98610.00;5027674;28;20083;-79
2022/06/27 02:15:21;;;;;;;8.02;7.05;;;;;;;21.35;64.92;98614.31;5026190;28;20021;-79
2022/06/27 02:17:47;;;;;;;7.38;6.32;;;;;;;21.40;64.89;98619.56;5024682;28;20033;-79
2022/06/27 02:20:13;;;;;;;7.38;6.72;;;;;;;21.41;64.74;98623.88;4993055;28;20041;-79
2022/06/27 02:22:39;;;;;;;7.40;6.70;;;;;;;21.37;64.77;98625.63;5025797;28;20037;-79
2022/06/27 02:25:06;;;;;;;7.88;6.38;;;;;;;21.35;65.14;98646.88;5026674;28;20037;-79
2022/06/27 02:27:34;;;;;;;6.40;5.80;;;;;;;21.36;64.94;98643.06;5025291;28;20033;-79
2022/06/27 02:30:00;;;;;;;6.70;5.75;;;;;;;21.15;65.22;98639.41;5025406;28;20026;-79
2022/06/27 02:32:27;;;;;;;6.18;5.57;;;;;;;21.23;65.21;98647.53;5029225;28;20083;-79
2022/06/27 02:34:56;;;;;;;5.78;5.28;;;;;;;21.12;66.25;98650.94;5026795;28;20057;-79
2022/06/27 02:37:23;;;;;;;8.20;5.18;;;;;;;21.20;65.51;98648.22;5025729;28;20033;-79
2022/06/27 02:39:49;;;;;;;6.57;5.85;;;;;;;21.06;66.03;98646.78;5025884;28;20021;-79
2022/06/27 02:42:18;;;;;;;8.43;5.95;;;;;;;21.21;65.29;98654.44;5023800;28;20187;-79
2022/06/27 02:44:46;;;;;;;5.47;4.97;;;;;;;21.23;65.13;98652.97;5024790;28;20025;-79
2022/06/27 02:47:13;;;;;;;6.90;5.20;;;;;;;21.06;65.61;98644.88;5024264;28;20033;-79
2022/06/27 02:49:39;;;;;;;5.43;5.03;;;;;;;21.15;65.58;98651.09;5024517;28;20036;-79
2022/06/27 02:52:44;;;;;;;5.45;4.97;;;;;;;21.22;65.08;98645.16;5024921;28;20037;-79
2022/06/27 02:55:15;;;;;;;5.97;5.32;;;;;;;21.27;64.69;98642.28;5004868;28;20500;-79
2022/06/27 02:57:49;;;;;;;4.65;4.25;;;;;;;21.28;64.70;98652.00;5002576;28;20038;-79
2022/06/27 03:00:16;;;;;;;5.60;4.78;;;;;;;20.96;66.53;98645.19;5023366;28;20500;-79
2022/06/27 03:02:42;;;;;;;5.32;4.70;;;;;;;21.14;65.13;98646.78;5024604;28;20513;-79
2022/06/27 03:05:08;;;;;;;5.93;5.22;;;;;;;20.59;67.68;98641.19;5026047;28;20034;-79
2022/06/27 03:07:41;;;;;;;6.72;5.32;;;;;;;19.95;69.79;98631.97;5017300;28;20680;-79
2022/06/27 03:10:08;;;;;;;9.10;5.95;;;;;;;19.26;72.25;98633.53;5036997;28;20137;-79
2022/06/27 03:12:34;;;;;;;8.43;5.95;;;;;;;18.91;74.03;98629.03;5024143;28;20041;-79
2022/06/27 03:14:59;;;;;;;5.28;4.88;;;;;;;19.60;70.82;98626.72;5026222;28;20067;-79
2022/06/27 03:17:27;;;;;;;5.38;4.63;;;;;;;19.79;69.61;98627.31;5028144;28;20041;-79
2022/06/27 03:19:53;;;;;;;5.80;5.20;;;;;;;20.40;68.39;98619.00;5008186;28;20029;-79
2022/06/27 03:22:18;;;;;;;10.23;6.47;;;;;;;18.96;73.06;98609.94;5023122;28;20509;-79
2022/06/27 03:24:43;;;;;;;6.50;5.88;;;;;;;18.76;74.68;98615.06;5024112;28;20029;-79
2022/06/27 03:27:10;;;;;;;6.50;5.85;;;;;;;18.91;74.31;98596.56;5008466;28;20551;-79
2022/06/27 03:29:36;;;;;;;6.07;5.47;;;;;;;18.97;74.06;98616.16;5025086;28;20385;-79
2022/06/27 03:32:02;;;;;;;6.55;4.82;;;;;;;19.03;73.84;98604.91;5026159;28;20037;-79
2022/06/27 03:34:27;;;;;;;9.10;6.00;;;;;;;19.01;73.66;98596.31;5024152;28;20091;-79
2022/06/27 03:36:53;;;;;;;5.43;4.82;;;;;;;19.25;72.45;98599.47;5008053;28;20045;-79
2022/06/27 03:39:18;;;;;;;7.40;6.03;;;;;;;19.44;72.33;98604.69;5027154;28;20384;-79
2022/06/27 03:41:44;;;;;;;6.57;5.97;;;;;;;19.00;73.79;98602.81;5013358;28;20033;-79
2022/06/27 03:44:09;;;;;;;6.47;5.85;;;;;;;18.74;75.67;98596.44;5007883;28;20503;-79
2022/06/27 03:46:36;;;;;;;7.50;5.68;;;;;;;18.74;75.73;98582.13;5026424;28;20037;-79
2022/06/27 03:51:46;;;;;;;7.75;6.05;;;;;;;18.74;75.46;98574.81;5026720;28;20036;-79
2022/06/27 03:54:11;;;;;;;7.75;6.43;;;;;;;18.97;74.25;98581.81;5028612;28;20397;-79
2022/06/27 03:56:36;;;;;;;9.05;5.32;;;;;;;18.94;74.52;98573.50;5022329;28;20029;-79
2022/06/27 03:59:02;;;;;;;5.50;5.00;;;;;;;19.66;70.93;98590.28;5028422;28;20120;-79
2022/06/27 04:01:28;;;;;;;5.75;5.10;;;;;;;19.76;71.78;98577.25;5024760;28;20120;-79
2022/06/27 04:03:54;;;;;;;8.55;5.70;;;;;;;19.60;73.29;98567.16;5028868;28;20025;-79
2022/06/27 04:06:19;;;;;;;6.40;5.80;;;;;;;19.10;74.00;98550.38;5029783;28;20041;-79
2022/06/27 04:08:45;;;;;;;7.65;5.72;;;;;;;19.59;72.31;98566.38;5028764;28;20330;-79
2022/06/27 04:11:11;;;;;;;4.55;4.15;;;;;;;20.52;67.93;98564.94;5009013;28;20131;-79
2022/06/27 04:13:36;;;;;;;8.30;4.70;;;;;;;20.66;66.79;98554.69;5029334;28;20037;-79
2022/06/27 04:16:02;;;;;;;8.18;5.00;;;;;;;20.83;66.53;98564.75;5010009;28;20474;-79
2022/06/27 04:18:27;;;;;;;5.15;4.65;;;;;;;20.95;66.27;98564.09;4999486;28;20537;-79
2022/06/27 04:20:53;;;;;;;4.80;4.05;;;;;;;21.06;65.71;98570.78;5040101;28;20025;-79
2022/06/27 04:23:19;;;;;;;6.25;5.47;;;;;;;20.82;68.14;98553.09;5028363;28;20036;-80
2022/06/27 04:25:44;;;;;;;5.10;4.60;;;;;;;21.01;65.94;98539.19;5025679;28;20761;-79
2022/06/27 04:28:10;;;;;;;5.10;4.70;;;;;;;21.18;65.41;98558.16;5026367;28;20028;-79
2022/06/27 04:30:35;;;;;;;5.25;4.75;;;;;;;21.31;65.09;98557.16;5028846;28;20091;-79
2022/06/27 04:33:01;;;;;;;4.15;3.83;;;;;;;21.39;65.11;98577.22;5025188;28;20044;-79
2022/06/27 04:35:27;;;;;;;4.63;4.22;;;;;;;21.31;65.14;98564.50;5024206;28;20033;-79
2022/06/27 04:37:53;;;;;;;4.57;4.10;;;;;;;21.34;64.81;98564.63;5008602;28;20481;-79
2022/06/27 04:40:19;;;;;;;6.60;4.32;;;;;;;21.43;65.26;98557.25;5029368;28;20095;-79
2022/06/27 04:42:48;;;;;;;5.45;5.03;;;;;;;21.30;66.21;98560.97;5028466;28;20025;-79
2022/06/27 04:45:14;;;;;;;5.28;4.75;;;;;;;21.24;66.55;98548.69;5028392;28;20116;-78
2022/06/27 04:47:45;;;;;;;5.03;4.53;;;;;;;21.37;66.41;98549.59;5009175;28;20045;-78
2022/06/27 04:50:13;;;;;;;4.90;4.50;;;;;;;21.23;66.70;98535.47;5028365;28;20108;-78
2022/06/27 04:52:39;;;;;;;5.57;5.10;;;;;;;21.19;67.03;98529.06;5008078;28;20033;-79
2022/06/27 04:55:10;;;;;;;8.25;4.68;;;;;;;21.35;66.17;98525.50;5027834;28;20033;-78
2022/06/27 04:57:37;;;;;;;5.30;4.80;;;;;;;21.52;65.98;98532.75;5026835;28;20482;-78
2022/06/27 05:00:08;;;;;;;5.30;4.80;;;;;;;21.53;66.05;98531.66;5025362;28;20108;-78
2022/06/27 05:02:35;;;;;;;6.60;4.82;;;;;;;21.44;65.88;98520.03;5025516;28;20038;-78
2022/06/27 05:05:01;;;;;;;4.97;4.57;;;;;;;21.46;66.04;98528.66;5027338;28;20753;-79
2022/06/27 05:07:26;;;;;;;5.20;4.78;;;;;;;21.41;66.24;98521.47;5028023;28;20034;-78
2022/06/27 05:09:56;;;;;;;4.40;4.07;;;;;;;21.39;66.60;98507.44;5009554;28;20412;-78
2022/06/27 05:12:22;;;;;;;7.25;4.78;;;;;;;21.34;66.23;98502.19;5014181;28;20622;-78
2022/06/27 05:14:48;;;;;;;6.05;5.50;;;;;;;21.54;66.19;98509.59;5031259;28;20029;-78
2022/06/27 05:17:13;;;;;;;5.80;4.60;;;;;;;21.65;65.82;98505.38;5031044;28;20029;-78
2022/06/27 05:19:39;;;;;;;7.05;6.35;;;;;;;20.66;70.11;98495.03;5010152;28;20149;-78
2022/06/27 05:22:04;;;;;;;8.95;6.72;;;;;;;19.50;74.91;98497.06;5030115;28;20511;-78
2022/06/27 05:24:29;;;;;;;8.20;5.75;;;;;;;20.15;71.79;98503.19;5036782;28;20049;-78
2022/06/27 05:26:55;;;;;;;7.25;6.65;;;;;;;20.09;73.43;98507.19;5027693;28;20041;-78
2022/06/27 05:29:21;;;;;;;8.43;7.60;;;;;;;20.41;72.42;98505.94;5011936;28;20447;-78
2022/06/27 05:31:47;;;;;;;7.32;6.60;;;;;;;20.61;70.71;98500.66;5029307;28;20036;-78
2022/06/27 05:34:12;;;;;;;27.73;7.13;;;;;;;21.03;68.91;98511.72;4996533;28;20076;-79
2022/06/27 05:36:38;;;;;;;10.93;7.32;;;;;;;20.38;72.63;98509.28;5025283;28;20033;-78
2022/06/27 05:39:05;;;;;;;11.88;8.00;;;;;;;19.58;76.83;98518.75;5026874;28;20025;-78
2022/06/27 05:41:31;;;;;;;21.23;7.32;;;;;;;20.18;73.28;98532.38;5044475;28;20477;-78
2022/06/27 05:43:56;;;;;;;10.80;6.15;;;;;;;20.92;70.14;98539.19;5025774;28;20037;-78
2022/06/27 05:46:23;;;;;;;14.00;9.43;;;;;;;20.64;72.78;98551.53;5027544;28;20562;-78
2022/06/27 05:48:50;;;;;;;7.38;6.07;;;;;;;21.34;68.66;98545.63;5028616;28;20037;-78
2022/06/27 05:51:15;;;;;;;8.80;5.53;;;;;;;21.47;68.11;98541.13;5027623;28;20480;-78
2022/06/27 05:53:43;;;;;;;6.82;5.85;;;;;;;21.52;67.57;98535.47;5030454;28;20076;-78
2022/06/27 05:56:10;;;;;;;8.50;5.72;;;;;;;21.72;67.50;98574.69;5022077;28;20128;-78
2022/06/27 05:58:36;;;;;;;5.93;5.15;;;;;;;21.56;67.81;98566.28;5016751;28;20054;-78
2022/06/27 06:01:02;;;;;;;10.50;7.78;;;;;;;21.14;71.77;98548.25;5021294;28;20029;-78
2022/06/27 06:03:28;;;;;;;10.73;7.57;;;;;;;20.88;71.97;98540.94;5034486;28;20022;-78
2022/06/27 06:05:54;;;;;;;8.27;7.07;;;;;;;21.10;70.50;98547.31;5021361;28;20037;-78
2022/06/27 06:08:21;;;;;;;9.65;6.88;;;;;;;21.32;69.47;98537.00;5022099;28;20089;-78
2022/06/27 06:10:47;;;;;;;8.73;6.93;;;;;;;21.49;68.87;98542.34;5026532;28;20464;-78
2022/06/27 06:13:13;;;;;;;7.28;6.57;;;;;;;21.28;69.84;98533.34;5028049;28;20021;-78
2022/06/27 06:15:40;;;;;;;6.53;6.03;;;;;;;21.49;68.97;98561.38;5008020;28;20052;-78
2022/06/27 06:18:06;;;;;;;9.68;7.85;;;;;;;21.23;70.36;98547.09;5023338;28;20037;-78
2022/06/27 06:20:32;;;;;;;6.55;6.05;;;;;;;21.61;69.09;98553.34;5019601;28;20469;-78
2022/06/27 06:22:59;;;;;;;9.63;7.15;;;;;;;21.69;68.96;98548.19;5019387;28;20108;-78
2022/06/27 06:25:26;;;;;;;6.35;5.75;;;;;;;21.81;68.05;98557.22;5030204;28;24545;-78
2022/06/27 06:27:51;;;;;;;7.15;6.55;;;;;;;21.78;68.28;98557.88;5026705;28;20035;-78
2022/06/27 06:30:19;;;;;;;6.70;6.10;;;;;;;21.83;68.01;98559.63;5019541;28;20489;-78
2022/06/27 06:32:45;;;;;;;9.10;8.25;;;;;;;21.09;72.11;98554.66;5041428;28;20036;-78
2022/06/27 06:35:11;;;;;;;8.15;7.18;;;;;;;20.79;73.32;98550.25;5020124;28;20040;-78
2022/06/27 06:37:39;;;;;;;8.35;7.53;;;;;;;21.31;71.41;98545.50;5026050;28;20032;-78
2022/06/27 06:40:06;;;;;;;9.27;8.32;;;;;;;20.93;73.20;98548.91;5030351;28;20029;-78
2022/06/27 06:42:32;;;;;;;6.93;5.88;;;;;;;21.49;69.63;98568.75;5034704;28;20028;-78
2022/06/27 06:44:57;;;;;;;6.65;5.68;;;;;;;21.83;68.58;98576.75;5030179;28;20025;-78
2022/06/27 06:47:25;;;;;;;9.32;7.55;;;;;;;21.61;70.08;98563.41;5022631;28;20036;-78
2022/06/27 06:49:51;;;;;;;10.00;9.07;;;;;;;20.70;74.59;98557.59;5026104;28;20034;-80
2022/06/27 06:52:18;;;;;;;7.57;6.80;;;;;;;19.89;76.96;98554.66;5025662;28;20095;-78
2022/06/27 06:54:45;;;;;;;12.88;9.18;;;;;;;20.50;75.70;98574.50;5028645;28;20690;-78
2022/06/27 06:57:11;;;;;;;14.90;9.05;;;;;;;21.00;74.29;98591.03;5021504;28;20029;-78
2022/06/27 06:59:37;;;;;;;6.90;6.30;;;;;;;21.63;69.89;98597.28;5029174;28;20723;-78
2022/06/27 07:02:04;;;;;;;11.40;6.85;;;;;;;21.52;71.01;98592.50;5028695;28;20060;-78
2022/06/27 07:04:30;;;;;;;9.75;6.22;;;;;;;21.61;70.21;98599.50;5026944;28;20439;-78
2022/06/27 07:06:56;;;;;;;7.32;6.63;;;;;;;22.22;67.93;98611.69;5029954;28;20022;-78
2022/06/27 07:09:21;;;;;;;9.95;8.95;;;;;;;22.18;70.91;98607.22;5031412;28;20527;-78
2022/06/27 07:11:47;;;;;;;8.63;7.97;;;;;;;21.92;71.33;98601.16;5026756;28;20246;-78
2022/06/27 07:14:14;;;;;;;10.70;9.63;;;;;;;20.99;75.05;98589.47;5031923;28;20405;-78
2022/06/27 07:16:40;;;;;;;11.57;10.57;;;;;;;20.86;76.77;98581.16;5032447;28;20430;-78
2022/06/27 07:19:06;;;;;;;11.60;10.60;;;;;;;21.32;74.88;98579.66;5017369;28;20025;-77
2022/06/27 07:21:34;;;;;;;7.85;6.82;;;;;;;21.97;69.79;98584.66;5028752;28;20095;-78
2022/06/27 07:24:01;;;;;;;7.53;6.90;;;;;;;21.91;70.46;98596.84;5026005;28;20665;-78
2022/06/27 07:26:29;;;;;;;13.50;12.10;;;;;;;21.57;73.50;98606.72;5028871;28;20463;-78
2022/06/27 07:28:56;;;;;;;9.90;6.82;;;;;;;22.18;69.45;98610.75;5029978;28;20129;-78
2022/06/27 07:31:22;;;;;;;9.20;7.55;;;;;;;22.42;69.94;98609.31;5044055;28;20040;-78
2022/06/27 07:33:51;;;;;;;8.00;7.30;;;;;;;22.66;68.04;98609.47;5026821;28;20087;-78
2022/06/27 07:36:19;;;;;;;15.98;9.45;;;;;;;22.72;69.93;98614.38;5050042;28;20533;-78
2022/06/27 07:38:46;;;;;;;7.85;7.07;;;;;;;23.07;66.67;98618.38;5020476;28;20140;-78
2022/06/27 07:41:16;;;;;;;7.95;7.22;;;;;;;22.81;68.79;98617.81;5026616;28;20025;-78
2022/06/27 07:43:46;;;;;;;7.70;7.13;;;;;;;23.16;67.11;98618.28;5031708;28;20029;-78
2022/06/27 07:46:12;;;;;;;7.47;6.82;;;;;;;23.40;66.13;98623.00;5034524;28;20546;-78
2022/06/27 07:48:38;;;;;;;8.32;7.53;;;;;;;23.33;65.95;98618.13;5032141;28;20030;-78
2022/06/27 07:51:04;;;;;;;11.40;10.23;;;;;;;23.11;70.00;98622.00;5014568;28;20497;-78
2022/06/27 07:53:30;;;;;;;10.90;9.85;;;;;;;22.45;70.50;98604.00;5033591;28;20037;-78
2022/06/27 07:55:59;;;;;;;13.75;12.50;;;;;;;22.12;72.65;98595.75;5031014;28;20035;-78
2022/06/27 07:58:33;;;;;;;9.25;8.38;;;;;;;23.15;68.11;98594.13;5049914;28;20120;-79
2022/06/27 08:01:00;;;;;;;8.98;8.07;;;;;;;23.22;67.87;98595.13;5032957;28;20512;-78
2022/06/27 08:03:41;;;;;;;11.20;10.00;;;;;;;23.01;70.99;98587.03;5032144;28;20032;-78
2022/06/27 08:06:14;;;;;;;8.90;8.10;;;;;;;23.20;69.23;98612.97;5019115;28;20509;-79
2022/06/27 08:08:46;;;;;;;9.02;8.13;;;;;;;23.73;66.50;98613.66;5025675;28;20043;-78
2022/06/27 08:11:15;;;;;;;13.00;11.80;;;;;;;23.34;68.78;98613.47;5027092;28;20059;-78
2022/06/27 08:13:44;;;;;;;10.35;9.32;;;;;;;23.07;69.63;98614.84;5031935;28;20036;-78
2022/06/27 08:16:14;;;;;;;18.20;13.50;;;;;;;23.28;68.83;98626.50;5009133;28;20033;-78
2022/06/27 08:18:40;;;;;;;13.57;8.52;;;;;;;23.98;66.08;98622.63;5024313;28;20052;-78
2022/06/27 08:21:07;;;;;;;9.35;8.35;;;;;;;24.28;65.60;98632.19;5032530;28;20033;-78
2022/06/27 08:23:33;;;;;;;11.80;10.80;;;;;;;24.11;67.27;98635.16;5024171;28;20045;-79
2022/06/27 08:25:59;;;;;;;10.02;8.27;;;;;;;24.24;65.85;98641.38;5030208;28;20083;-78
2022/06/27 08:28:26;;;;;;;9.40;8.70;;;;;;;24.51;64.93;98652.38;5025755;28;20109;-78
2022/06/27 08:30:52;;;;;;;8.30;7.60;;;;;;;24.61;64.27;98656.56;5043516;28;20043;-78
2022/06/27 08:33:18;;;;;;;10.20;9.27;;;;;;;24.28;67.27;98653.19;5029776;28;20120;-78
2022/06/27 08:35:47;;;;;;;9.48;8.55;;;;;;;24.36;66.19;98647.63;4996895;28;20490;-79
2022/06/27 08:38:15;;;;;;;9.88;7.97;;;;;;;24.79;64.08;98633.31;5026181;28;20038;-79
2022/06/27 08:40:41;;;;;;;9.48;8.52;;;;;;;25.08;62.74;98637.66;5009918;28;20025;-78
2022/06/27 08:43:09;;;;;;;9.88;8.80;;;;;;;24.90;63.91;98648.06;5034630;28;20505;-78
2022/06/27 08:45:35;;;;;;;8.60;7.97;;;;;;;25.16;63.37;98647.66;5034468;28;20489;-78
2022/06/27 08:48:07;;;;;;;11.07;10.07;;;;;;;24.84;64.38;98654.94;5033115;28;20057;-78
2022/06/27 08:50:36;;;;;;;10.70;9.63;;;;;;;25.33;62.96;98654.72;5030929;28;20033;-78
2022/06/27 08:53:03;;;;;;;9.73;7.70;;;;;;;25.37;63.34;98652.88;5028883;28;20056;-78
2022/06/27 08:55:31;;;;;;;10.20;9.20;;;;;;;25.63;63.70;98664.13;5036838;28;20033;-79
2022/06/27 08:58:03;;;;;;;20.00;10.10;;;;;;;25.17;65.35;98641.03;5031369;28;20040;-79
2022/06/27 09:00:30;;;;;;;8.88;8.00;;;;;;;25.50;62.34;98633.34;5032849;28;20068;-79
2022/06/27 09:02:55;;;;;;;9.20;8.48;;;;;;;25.89;61.99;98637.88;5026920;28;20037;-79
2022/06/27 09:05:27;;;;;;;8.50;7.80;;;;;;;26.10;60.69;98659.50;5021167;28;20034;-79
2022/06/27 09:07:59;;;;;;;7.88;7.28;;;;;;;26.06;60.68;98655.06;5046389;28;20095;-78
2022/06/27 09:10:43;;;;;;;11.13;9.23;;;;;;;25.79;61.25;98648.53;5037159;28;20443;-79
2022/06/27 09:13:13;;;;;;;8.90;8.18;;;;;;;25.87;61.67;98645.63;5035773;28;20035;-79
2022/06/27 09:15:39;;;;;;;9.60;8.60;;;;;;;26.27;60.66;98661.06;5021810;28;20031;-79
2022/06/27 09:18:06;;;;;;;8.32;7.55;;;;;;;26.28;59.82;98660.69;5027450;28;20041;-78
2022/06/27 09:20:51;;;;;;;9.55;8.73;;;;;;;26.03;62.81;98660.09;5035434;28;20060;-79
2022/06/27 09:23:28;;;;;;;8.13;7.43;;;;;;;26.28;59.81;98673.56;5039537;28;20436;-79
2022/06/27 09:26:15;;;;;;;8.57;7.13;;;;;;;26.29;59.96;98670.50;5022906;28;20747;-79
2022/06/27 09:28:51;;;;;;;10.82;9.82;;;;;;;26.00;61.04;98660.00;5028857;28;20153;-79
2022/06/27 09:31:26;;;;;;;12.35;8.98;;;;;;;25.99;61.06;98652.97;5021495;28;20233;-79
2022/06/27 09:34:10;;;;;;;12.80;8.80;;;;;;;25.87;60.95;98658.50;5032837;28;20026;-79
2022/06/27 09:36:50;;;;;;;7.95;7.05;;;;;;;26.11;60.27;98663.81;5032609;28;20572;-79
2022/06/27 09:39:29;;;;;;;8.75;7.55;;;;;;;25.95;60.46;98643.84;5039023;28;20045;-79
2022/06/27 09:42:11;;;;;;;9.32;8.25;;;;;;;25.95;60.98;98652.84;5027238;28;20036;-79
2022/06/27 09:44:38;;;;;;;8.68;8.00;;;;;;;26.02;61.26;98653.03;5037302;28;20094;-79
2022/06/27 09:47:16;;;;;;;9.10;8.20;;;;;;;25.91;62.45;98662.13;5029464;28;20025;-79
2022/06/27 09:49:44;;;;;;;11.05;8.30;;;;;;;25.78;62.86;98644.22;5036272;28;20065;-79
2022/06/27 09:52:21;;;;;;;9.00;7.68;;;;;;;25.89;61.11;98656.22;5031359;28;20029;-79
2022/06/27 09:54:50;;;;;;;11.68;7.72;;;;;;;25.95;61.30;98654.78;5036262;28;20053;-79
2022/06/27 09:57:17;;;;;;;8.13;7.32;;;;;;;26.01;60.89;98645.19;5019459;28;20037;-79
2022/06/27 09:59:44;;;;;;;7.80;7.13;;;;;;;26.12;60.90;98654.47;5020711;28;20112;-79
2022/06/27 10:02:13;;;;;;;7.30;6.70;;;;;;;26.22;60.82;98642.97;5033234;28;20102;-79
2022/06/27 10:04:40;;;;;;;8.23;6.93;;;;;;;26.21;60.53;98657.03;5019540;28;20087;-79
2022/06/27 10:07:08;;;;;;;10.27;7.95;;;;;;;26.02;61.01;98638.56;5024192;28;20044;-79
2022/06/27 10:09:36;;;;;;;8.68;7.97;;;;;;;26.15;60.74;98636.53;5026059;28;20049;-79
2022/06/27 10:12:23;;;;;;;7.93;7.22;;;;;;;26.10;61.25;98656.78;5028715;28;20126;-79
2022/06/27 10:15:10;;;;;;;7.35;6.60;;;;;;;26.24;60.48;98670.78;5026523;28;20385;-79
2022/06/27 10:17:37;;;;;;;8.70;7.82;;;;;;;26.15;60.76;98652.94;5027446;28;20481;-79
2022/06/27 10:20:13;;;;;;;9.52;8.32;;;;;;;26.21;60.38;98654.28;5028637;28;20541;-79
2022/06/27 10:22:39;;;;;;;11.90;7.60;;;;;;;25.84;61.43;98646.31;5007451;28;20131;-79
2022/06/27 10:25:26;;;;;;;8.18;7.57;;;;;;;26.17;60.80;98661.63;5028811;28;20029;-79
2022/06/27 10:28:07;;;;;;;12.95;8.80;;;;;;;26.22;61.56;98664.88;5027408;28;20025;-79
2022/06/27 10:30:52;;;;;;;8.35;7.53;;;;;;;26.39;59.92;98663.66;5027860;28;20485;-79
2022/06/27 10:33:21;;;;;;;8.63;7.93;;;;;;;26.13;61.06;98645.09;5042874;28;20120;-79
2022/06/27 10:36:37;;;;;;;7.63;7.05;;;;;;;26.11;60.80;98652.06;5028702;28;20029;-79
2022/06/27 10:38:48;;;;;;;7.93;7.20;;;;;;;26.18;62.53;98655.78;5021516;28;20042;-79
2022/06/27 10:41:19;;;;;;;9.05;8.35;;;;;;;25.93;61.92;98646.13;5023695;28;20072;-79
2022/06/27 10:43:45;;;;;;;9.77;8.95;;;;;;;25.61;62.21;98644.56;5021846;28;20029;-79
2022/06/27 10:46:10;;;;;;;7.30;6.70;;;;;;;26.23;60.29;98661.00;5023057;28;20421;-79
2022/06/27 10:48:36;;;;;;;7.97;7.18;;;;;;;26.37;59.96;98655.03;5021513;28;20040;-79
2022/06/27 10:51:27;;;;;;;7.57;6.88;;;;;;;26.30;60.08;98660.38;5029619;28;20055;-79
2022/06/27 10:53:58;;;;;;;7.30;6.75;;;;;;;26.30;59.90;98655.66;5029368;28;20030;-78
2022/06/27 10:56:34;;;;;;;7.57;6.93;;;;;;;26.31;59.90;98646.31;5030960;28;20053;-78
2022/06/27 10:59:05;;;;;;;7.18;6.43;;;;;;;26.16;60.48;98649.88;5021664;28;20116;-78
2022/06/27 11:01:32;;;;;;;8.77;7.88;;;;;;;26.22;60.43;98645.72;5024686;28;20033;-78
2022/06/27 11:03:58;;;;;;;7.75;7.05;;;;;;;26.14;60.45;98646.69;5023407;28;20070;-78
2022/06/27 11:06:25;;;;;;;9.32;8.52;;;;;;;26.08;62.90;98645.34;5020510;28;20116;-78
2022/06/27 11:08:53;;;;;;;7.78;7.18;;;;;;;26.14;60.53;98646.69;5024336;28;20030;-78
2022/06/27 11:11:24;;;;;;;7.63;7.03;;;;;;;26.00;61.63;98654.53;5018810;28;20025;-78
2022/06/27 11:13:55;;;;;;;10.20;7.40;;;;;;;25.96;62.29;98667.34;5027487;28;20060;-78
2022/06/27 11:16:26;;;;;;;8.73;7.93;;;;;;;26.06;62.27;98666.78;5023526;28;20050;-78
2022/06/27 11:18:58;;;;;;;8.30;7.30;;;;;;;26.25;61.62;98668.84;5025650;28;20397;-79
2022/06/27 11:21:28;;;;;;;9.20;8.40;;;;;;;26.31;61.72;98662.72;5026579;28;20561;-78
2022/06/27 11:23:59;;;;;;;9.07;8.10;;;;;;;26.64;61.59;98673.25;5023466;28;20033;-79
2022/06/27 11:26:29;;;;;;;7.75;7.05;;;;;;;26.98;59.88;98682.59;5021953;28;20028;-79
2022/06/27 11:31:57;;;;;;;7.57;6.57;;;;;;;27.72;57.77;98684.84;5009330;28;20072;-79
2022/06/27 11:34:24;;;;;;;7.07;6.50;;;;;;;27.89;57.23;98680.84;5006928;28;20322;-79
2022/06/27 11:36:54;;;;;;;6.72;6.13;;;;;;;27.91;57.05;98679.31;5023877;28;20037;-79
2022/06/27 11:39:27;;;;;;;7.40;6.70;;;;;;;27.58;57.77;98675.59;5028054;28;20026;-79
2022/06/27 11:41:58;;;;;;;8.80;8.07;;;;;;;27.40;57.85;98691.72;5026143;28;20497;-79
2022/06/27 11:44:24;;;;;;;8.85;8.13;;;;;;;27.06;58.63;98670.66;5011141;28;20034;-79